Moffit, ND (58560)

7:46 AM CST on December 04, 2016 (GMT -0600)
Hwy 34 Hazelton | | Change Station

Elev 1982 ft 46.49 °N, 100.27 °W | Updated 0 second ago

Overcast
Overcast
29.7 °F
Feels Like 25 °F
N
4.0
Wind Variable Wind from West
Gusts 4.9 mph

Today
High -- | Low -- °F
--% Chance of Precip.
Yesterday
High -- | Low -- °F
Precip. -- in
Pressure 29.76 in
Visibility 10.0 miles
Clouds Scattered Clouds 2100 ft
Mostly Cloudy 2900 ft
Overcast 11000 ft
Windchill 25 °F
Dew Point 26 °F
Humidity 85%
Rainfall 0.00 in
Snow Depth Not available.
8:09 AM 4:54 PM
Waxing Crescent, 22% visible
SPECI KBIS 041318Z 28008KT 10SM SCT021 BKN029 OVC110 00/M01 A2976 RMK AO2 T00001011
Pressure 29.76 in
Visibility 10.0 miles
Clouds Scattered Clouds 2100 ft
Mostly Cloudy 2900 ft
Overcast 11000 ft
Windchill 25 °F
Dew Point 26 °F
Humidity 85%
Rainfall 0.00 in
Snow Depth Not available.
8:09 AM 4:54 PM
Waxing Crescent, 22% visible
SPECI KBIS 041318Z 28008KT 10SM SCT021 BKN029 OVC110 00/M01 A2976 RMK AO2 T00001011

10-Day Weather Forecast

Almanac

Astronomy

Dec. 04, 2016 Rise Set
Actual Time
Civil Twilight
Nautical Twilight
Astronomical Twilight
Moon
Length of Visible Light
Length of Day
Tomorrow will be .
, % of the Moon is Illuminated

Today's Extremes

State Highs State Lows

Community

WunderPhotos

Upload Photos

1,955,596 photos uploaded!

WunderBlog® & News

Nearby

Air Quality

  Air Quality AQ Index Pollutant
Not available.

Snow Depth

Station Depth Elevation

Earthquake Activity

City Distance Mag. Time & Date
Minimum magnitude displayed is 2.5.

Coastal Water Temperatures

Place Temperature

Stations

Nearby Weather Stations

Station Location Temp. Windchill Dew Point Humidity Wind Precip. Elev Updated Type
                   

Watches & Warnings

There are currently no watches in effect.